sensor_id;sensor_type;location;lat;lon;timestamp;P1;durP1;ratioP1;P2;durP2;ratioP2
23743;SDS011;12052;53.478;10.182;2023-05-20T00:00:53;3.90;;;1.02;;
23743;SDS011;12052;53.478;10.182;2023-05-20T00:03:18;1.13;;;0.70;;
23743;SDS011;12052;53.478;10.182;2023-05-20T00:05:44;2.85;;;0.90;;
23743;SDS011;12052;53.478;10.182;2023-05-20T00:08:10;1.88;;;0.80;;
23743;SDS011;12052;53.478;10.182;2023-05-20T00:10:36;1.63;;;0.88;;
23743;SDS011;12052;53.478;10.182;2023-05-20T00:13:02;1.10;;;1.00;;
23743;SDS011;12052;53.478;10.182;2023-05-20T00:15:28;2.92;;;0.80;;
23743;SDS011;12052;53.478;10.182;2023-05-20T00:17:54;2.42;;;1.00;;
23743;SDS011;12052;53.478;10.182;2023-05-20T00:20:21;2.88;;;0.82;;
23743;SDS011;12052;53.478;10.182;2023-05-20T00:22:47;1.52;;;0.85;;
23743;SDS011;12052;53.478;10.182;2023-05-20T00:25:12;3.03;;;1.33;;
23743;SDS011;12052;53.478;10.182;2023-05-20T00:27:39;1.85;;;1.08;;
23743;SDS011;12052;53.478;10.182;2023-05-20T00:30:05;2.58;;;1.30;;
23743;SDS011;12052;53.478;10.182;2023-05-20T00:32:32;3.28;;;0.90;;
23743;SDS011;12052;53.478;10.182;2023-05-20T00:34:58;3.08;;;1.00;;
23743;SDS011;12052;53.478;10.182;2023-05-20T00:37:24;4.18;;;1.00;;
23743;SDS011;12052;53.478;10.182;2023-05-20T00:39:50;1.58;;;0.90;;
23743;SDS011;12052;53.478;10.182;2023-05-20T00:42:19;1.35;;;0.90;;
23743;SDS011;12052;53.478;10.182;2023-05-20T00:44:49;1.27;;;0.82;;
23743;SDS011;12052;53.478;10.182;2023-05-20T00:47:15;4.57;;;1.02;;
23743;SDS011;12052;53.478;10.182;2023-05-20T00:49:42;1.17;;;0.80;;
23743;SDS011;12052;53.478;10.182;2023-05-20T00:52:13;0.93;;;0.82;;
23743;SDS011;12052;53.478;10.182;2023-05-20T00:54:39;3.15;;;1.10;;
23743;SDS011;12052;53.478;10.182;2023-05-20T00:57:05;1.20;;;0.80;;
23743;SDS011;12052;53.478;10.182;2023-05-20T00:59:35;1.55;;;1.00;;
23743;SDS011;12052;53.478;10.182;2023-05-20T01:02:02;1.80;;;0.90;;
23743;SDS011;12052;53.478;10.182;2023-05-20T01:04:28;2.28;;;0.90;;
23743;SDS011;12052;53.478;10.182;2023-05-20T01:06:55;1.77;;;1.08;;
23743;SDS011;12052;53.478;10.182;2023-05-20T01:09:22;1.65;;;0.93;;
23743;SDS011;12052;53.478;10.182;2023-05-20T01:11:55;1.85;;;0.95;;
23743;SDS011;12052;53.478;10.182;2023-05-20T01:14:28;1.52;;;0.90;;
23743;SDS011;12052;53.478;10.182;2023-05-20T01:16:58;1.27;;;0.82;;
23743;SDS011;12052;53.478;10.182;2023-05-20T01:21:59;1.30;;;0.88;;
23743;SDS011;12052;53.478;10.182;2023-05-20T01:24:27;2.40;;;1.17;;
23743;SDS011;12052;53.478;10.182;2023-05-20T01:26:52;2.03;;;0.70;;
23743;SDS011;12052;53.478;10.182;2023-05-20T01:29:18;4.35;;;0.98;;
23743;SDS011;12052;53.478;10.182;2023-05-20T01:31:44;2.15;;;0.95;;
23743;SDS011;12052;53.478;10.182;2023-05-20T01:34:11;1.10;;;0.80;;
23743;SDS011;12052;53.478;10.182;2023-05-20T01:36:38;0.75;;;0.70;;
23743;SDS011;12052;53.478;10.182;2023-05-20T01:39:04;4.30;;;0.90;;
23743;SDS011;12052;53.478;10.182;2023-05-20T01:41:30;1.58;;;0.88;;
23743;SDS011;12052;53.478;10.182;2023-05-20T01:43:58;3.63;;;1.00;;
23743;SDS011;12052;53.478;10.182;2023-05-20T01:46:25;2.67;;;0.95;;
23743;SDS011;12052;53.478;10.182;2023-05-20T01:48:51;5.75;;;1.20;;
23743;SDS011;12052;53.478;10.182;2023-05-20T01:51:17;5.88;;;1.02;;
23743;SDS011;12052;53.478;10.182;2023-05-20T01:53:42;1.25;;;0.80;;
23743;SDS011;12052;53.478;10.182;2023-05-20T01:56:08;5.03;;;1.05;;
23743;SDS011;12052;53.478;10.182;2023-05-20T01:58:33;3.45;;;0.88;;
23743;SDS011;12052;53.478;10.182;2023-05-20T02:00:59;3.35;;;0.70;;
23743;SDS011;12052;53.478;10.182;2023-05-20T02:03:25;2.35;;;1.10;;
23743;SDS011;12052;53.478;10.182;2023-05-20T02:05:51;1.98;;;1.10;;
23743;SDS011;12052;53.478;10.182;2023-05-20T02:08:16;4.93;;;1.10;;
23743;SDS011;12052;53.478;10.182;2023-05-20T02:10:42;2.35;;;0.90;;
23743;SDS011;12052;53.478;10.182;2023-05-20T02:13:07;1.08;;;0.70;;
23743;SDS011;12052;53.478;10.182;2023-05-20T02:15:33;1.08;;;0.73;;
23743;SDS011;12052;53.478;10.182;2023-05-20T02:17:58;2.72;;;0.90;;
23743;SDS011;12052;53.478;10.182;2023-05-20T02:20:24;1.92;;;0.98;;
23743;SDS011;12052;53.478;10.182;2023-05-20T02:22:49;2.13;;;1.00;;
23743;SDS011;12052;53.478;10.182;2023-05-20T02:25:15;1.30;;;0.60;;
23743;SDS011;12052;53.478;10.182;2023-05-20T02:27:41;1.30;;;0.90;;
23743;SDS011;12052;53.478;10.182;2023-05-20T02:30:06;1.48;;;1.08;;
23743;SDS011;12052;53.478;10.182;2023-05-20T02:32:32;1.63;;;1.08;;
23743;SDS011;12052;53.478;10.182;2023-05-20T02:34:58;2.53;;;0.77;;
23743;SDS011;12052;53.478;10.182;2023-05-20T02:37:24;1.88;;;0.80;;
23743;SDS011;12052;53.478;10.182;2023-05-20T02:39:50;6.07;;;1.00;;
23743;SDS011;12052;53.478;10.182;2023-05-20T02:42:15;1.48;;;0.90;;
23743;SDS011;12052;53.478;10.182;2023-05-20T02:44:41;1.27;;;0.80;;
23743;SDS011;12052;53.478;10.182;2023-05-20T02:47:06;3.28;;;0.98;;
23743;SDS011;12052;53.478;10.182;2023-05-20T02:49:32;1.88;;;0.95;;
23743;SDS011;12052;53.478;10.182;2023-05-20T02:51:57;1.73;;;0.90;;
23743;SDS011;12052;53.478;10.182;2023-05-20T02:54:23;1.00;;;0.90;;
23743;SDS011;12052;53.478;10.182;2023-05-20T02:56:48;1.33;;;0.80;;
23743;SDS011;12052;53.478;10.182;2023-05-20T02:59:14;2.45;;;1.20;;
23743;SDS011;12052;53.478;10.182;2023-05-20T03:01:40;4.97;;;1.15;;
23743;SDS011;12052;53.478;10.182;2023-05-20T03:04:05;1.05;;;0.80;;
23743;SDS011;12052;53.478;10.182;2023-05-20T03:06:31;2.35;;;1.38;;
23743;SDS011;12052;53.478;10.182;2023-05-20T03:08:57;3.97;;;0.85;;
23743;SDS011;12052;53.478;10.182;2023-05-20T03:11:23;1.25;;;0.93;;
23743;SDS011;12052;53.478;10.182;2023-05-20T03:13:49;1.33;;;1.00;;
23743;SDS011;12052;53.478;10.182;2023-05-20T03:16:15;1.10;;;0.90;;
23743;SDS011;12052;53.478;10.182;2023-05-20T03:18:40;3.38;;;1.08;;
23743;SDS011;12052;53.478;10.182;2023-05-20T03:21:06;1.25;;;0.90;;
23743;SDS011;12052;53.478;10.182;2023-05-20T03:23:32;2.55;;;0.85;;
23743;SDS011;12052;53.478;10.182;2023-05-20T03:25:58;3.08;;;1.00;;
23743;SDS011;12052;53.478;10.182;2023-05-20T03:28:24;3.38;;;0.90;;
23743;SDS011;12052;53.478;10.182;2023-05-20T03:30:49;3.08;;;0.93;;
23743;SDS011;12052;53.478;10.182;2023-05-20T03:33:15;3.45;;;1.30;;
23743;SDS011;12052;53.478;10.182;2023-05-20T03:35:41;1.25;;;0.88;;
23743;SDS011;12052;53.478;10.182;2023-05-20T03:38:06;4.78;;;0.90;;
23743;SDS011;12052;53.478;10.182;2023-05-20T03:40:32;1.52;;;1.02;;
23743;SDS011;12052;53.478;10.182;2023-05-20T03:42:57;1.63;;;0.90;;
23743;SDS011;12052;53.478;10.182;2023-05-20T03:45:23;1.85;;;1.20;;
23743;SDS011;12052;53.478;10.182;2023-05-20T03:47:49;4.05;;;0.98;;
23743;SDS011;12052;53.478;10.182;2023-05-20T03:50:14;2.08;;;0.80;;
23743;SDS011;12052;53.478;10.182;2023-05-20T03:52:40;1.33;;;0.82;;
23743;SDS011;12052;53.478;10.182;2023-05-20T03:55:05;1.55;;;0.90;;
23743;SDS011;12052;53.478;10.182;2023-05-20T03:57:31;1.98;;;0.90;;
23743;SDS011;12052;53.478;10.182;2023-05-20T03:59:57;1.75;;;0.77;;
23743;SDS011;12052;53.478;10.182;2023-05-20T04:02:23;2.85;;;0.93;;
23743;SDS011;12052;53.478;10.182;2023-05-20T04:04:49;1.92;;;1.00;;
23743;SDS011;12052;53.478;10.182;2023-05-20T04:07:16;5.22;;;1.10;;
23743;SDS011;12052;53.478;10.182;2023-05-20T04:09:42;2.03;;;1.00;;
23743;SDS011;12052;53.478;10.182;2023-05-20T04:12:08;4.55;;;1.08;;
23743;SDS011;12052;53.478;10.182;2023-05-20T04:14:34;2.00;;;1.15;;
23743;SDS011;12052;53.478;10.182;2023-05-20T04:17:01;5.65;;;1.25;;
23743;SDS011;12052;53.478;10.182;2023-05-20T04:19:27;2.22;;;1.20;;
23743;SDS011;12052;53.478;10.182;2023-05-20T04:21:53;1.25;;;0.93;;
23743;SDS011;12052;53.478;10.182;2023-05-20T04:24:20;1.85;;;0.80;;
23743;SDS011;12052;53.478;10.182;2023-05-20T04:26:49;3.00;;;1.00;;
23743;SDS011;12052;53.478;10.182;2023-05-20T04:29:16;2.90;;;1.05;;
23743;SDS011;12052;53.478;10.182;2023-05-20T04:31:42;3.63;;;1.15;;
23743;SDS011;12052;53.478;10.182;2023-05-20T04:34:11;2.72;;;1.00;;
23743;SDS011;12052;53.478;10.182;2023-05-20T04:36:37;4.38;;;1.10;;
23743;SDS011;12052;53.478;10.182;2023-05-20T04:39:03;5.55;;;1.17;;
23743;SDS011;12052;53.478;10.182;2023-05-20T04:41:29;1.38;;;0.80;;
23743;SDS011;12052;53.478;10.182;2023-05-20T04:43:55;1.52;;;0.98;;
23743;SDS011;12052;53.478;10.182;2023-05-20T04:46:24;3.25;;;1.05;;
23743;SDS011;12052;53.478;10.182;2023-05-20T04:48:50;1.60;;;1.02;;
23743;SDS011;12052;53.478;10.182;2023-05-20T04:51:16;2.67;;;1.10;;
23743;SDS011;12052;53.478;10.182;2023-05-20T04:53:42;3.80;;;0.98;;
23743;SDS011;12052;53.478;10.182;2023-05-20T04:56:09;1.67;;;1.00;;
23743;SDS011;12052;53.478;10.182;2023-05-20T04:58:34;2.85;;;1.13;;
23743;SDS011;12052;53.478;10.182;2023-05-20T05:01:00;5.90;;;1.10;;
23743;SDS011;12052;53.478;10.182;2023-05-20T05:03:26;1.85;;;0.80;;
23743;SDS011;12052;53.478;10.182;2023-05-20T05:05:55;1.38;;;0.80;;
23743;SDS011;12052;53.478;10.182;2023-05-20T05:08:21;3.20;;;1.10;;
23743;SDS011;12052;53.478;10.182;2023-05-20T05:10:47;2.92;;;1.30;;
23743;SDS011;12052;53.478;10.182;2023-05-20T05:13:12;4.30;;;1.02;;
23743;SDS011;12052;53.478;10.182;2023-05-20T05:15:38;4.05;;;1.10;;
23743;SDS011;12052;53.478;10.182;2023-05-20T05:18:03;1.13;;;1.00;;
23743;SDS011;12052;53.478;10.182;2023-05-20T05:20:29;3.00;;;1.10;;
23743;SDS011;12052;53.478;10.182;2023-05-20T05:22:55;5.68;;;1.10;;
23743;SDS011;12052;53.478;10.182;2023-05-20T05:25:20;2.10;;;0.90;;
23743;SDS011;12052;53.478;10.182;2023-05-20T05:27:46;2.95;;;1.20;;
23743;SDS011;12052;53.478;10.182;2023-05-20T05:30:14;4.97;;;1.30;;
23743;SDS011;12052;53.478;10.182;2023-05-20T05:32:39;2.40;;;1.30;;
23743;SDS011;12052;53.478;10.182;2023-05-20T05:35:05;2.38;;;1.20;;
23743;SDS011;12052;53.478;10.182;2023-05-20T05:37:31;2.83;;;1.10;;
23743;SDS011;12052;53.478;10.182;2023-05-20T05:39:56;2.17;;;1.10;;
23743;SDS011;12052;53.478;10.182;2023-05-20T05:42:22;3.78;;;1.30;;
23743;SDS011;12052;53.478;10.182;2023-05-20T05:44:48;5.50;;;1.17;;
23743;SDS011;12052;53.478;10.182;2023-05-20T05:47:13;2.65;;;1.00;;
23743;SDS011;12052;53.478;10.182;2023-05-20T05:49:39;3.08;;;1.30;;
23743;SDS011;12052;53.478;10.182;2023-05-20T05:52:05;4.88;;;1.05;;
23743;SDS011;12052;53.478;10.182;2023-05-20T05:54:31;5.70;;;1.00;;
23743;SDS011;12052;53.478;10.182;2023-05-20T05:56:56;2.10;;;1.13;;
23743;SDS011;12052;53.478;10.182;2023-05-20T05:59:22;3.95;;;1.17;;
23743;SDS011;12052;53.478;10.182;2023-05-20T06:01:48;2.33;;;1.30;;
23743;SDS011;12052;53.478;10.182;2023-05-20T06:04:13;1.92;;;1.10;;
23743;SDS011;12052;53.478;10.182;2023-05-20T06:06:39;5.70;;;1.33;;
23743;SDS011;12052;53.478;10.182;2023-05-20T06:09:05;3.58;;;1.10;;
23743;SDS011;12052;53.478;10.182;2023-05-20T06:11:31;4.90;;;1.38;;
23743;SDS011;12052;53.478;10.182;2023-05-20T06:13:56;2.10;;;1.00;;
23743;SDS011;12052;53.478;10.182;2023-05-20T06:16:22;2.17;;;0.98;;
23743;SDS011;12052;53.478;10.182;2023-05-20T06:18:48;4.20;;;1.20;;
23743;SDS011;12052;53.478;10.182;2023-05-20T06:21:17;1.92;;;1.02;;
23743;SDS011;12052;53.478;10.182;2023-05-20T06:23:42;2.03;;;0.98;;
23743;SDS011;12052;53.478;10.182;2023-05-20T06:26:08;1.92;;;1.20;;
23743;SDS011;12052;53.478;10.182;2023-05-20T06:28:34;3.17;;;1.10;;
23743;SDS011;12052;53.478;10.182;2023-05-20T06:30:59;2.63;;;1.20;;
23743;SDS011;12052;53.478;10.182;2023-05-20T06:33:25;4.63;;;1.35;;
23743;SDS011;12052;53.478;10.182;2023-05-20T06:35:53;3.03;;;1.45;;
23743;SDS011;12052;53.478;10.182;2023-05-20T06:38:19;1.45;;;1.10;;
23743;SDS011;12052;53.478;10.182;2023-05-20T06:40:45;4.25;;;1.92;;
23743;SDS011;12052;53.478;10.182;2023-05-20T06:43:12;2.63;;;1.52;;
23743;SDS011;12052;53.478;10.182;2023-05-20T06:45:37;4.82;;;1.35;;
23743;SDS011;12052;53.478;10.182;2023-05-20T06:48:03;2.72;;;1.10;;
23743;SDS011;12052;53.478;10.182;2023-05-20T06:50:28;2.17;;;1.30;;
23743;SDS011;12052;53.478;10.182;2023-05-20T06:52:54;1.92;;;1.25;;
23743;SDS011;12052;53.478;10.182;2023-05-20T06:55:19;6.53;;;1.63;;
23743;SDS011;12052;53.478;10.182;2023-05-20T06:57:45;4.35;;;1.23;;
23743;SDS011;12052;53.478;10.182;2023-05-20T07:00:11;5.78;;;1.30;;
23743;SDS011;12052;53.478;10.182;2023-05-20T07:02:38;3.30;;;1.30;;
23743;SDS011;12052;53.478;10.182;2023-05-20T07:05:04;4.28;;;1.30;;
23743;SDS011;12052;53.478;10.182;2023-05-20T07:07:30;1.92;;;1.10;;
23743;SDS011;12052;53.478;10.182;2023-05-20T07:09:56;6.28;;;1.40;;
23743;SDS011;12052;53.478;10.182;2023-05-20T07:12:22;1.92;;;1.20;;
23743;SDS011;12052;53.478;10.182;2023-05-20T07:14:47;1.52;;;1.08;;
23743;SDS011;12052;53.478;10.182;2023-05-20T07:17:13;3.90;;;1.40;;
23743;SDS011;12052;53.478;10.182;2023-05-20T07:19:39;3.83;;;1.33;;
23743;SDS011;12052;53.478;10.182;2023-05-20T07:22:04;3.63;;;1.30;;
23743;SDS011;12052;53.478;10.182;2023-05-20T07:24:30;1.58;;;1.05;;
23743;SDS011;12052;53.478;10.182;2023-05-20T07:26:56;1.67;;;1.10;;
23743;SDS011;12052;53.478;10.182;2023-05-20T07:29:21;3.13;;;1.20;;
23743;SDS011;12052;53.478;10.182;2023-05-20T07:31:47;3.42;;;1.50;;
23743;SDS011;12052;53.478;10.182;2023-05-20T07:34:12;2.58;;;1.27;;
23743;SDS011;12052;53.478;10.182;2023-05-20T07:36:38;1.77;;;1.27;;
23743;SDS011;12052;53.478;10.182;2023-05-20T07:39:03;2.08;;;1.30;;
23743;SDS011;12052;53.478;10.182;2023-05-20T07:41:29;3.28;;;1.65;;
23743;SDS011;12052;53.478;10.182;2023-05-20T07:43:55;4.45;;;1.40;;
23743;SDS011;12052;53.478;10.182;2023-05-20T07:46:20;3.95;;;1.70;;
23743;SDS011;12052;53.478;10.182;2023-05-20T07:48:46;4.82;;;1.63;;
23743;SDS011;12052;53.478;10.182;2023-05-20T07:51:12;3.30;;;1.63;;
23743;SDS011;12052;53.478;10.182;2023-05-20T07:53:37;2.78;;;1.55;;
23743;SDS011;12052;53.478;10.182;2023-05-20T07:56:03;3.30;;;1.33;;
23743;SDS011;12052;53.478;10.182;2023-05-20T07:58:30;4.50;;;1.38;;
23743;SDS011;12052;53.478;10.182;2023-05-20T08:00:55;5.45;;;1.70;;
23743;SDS011;12052;53.478;10.182;2023-05-20T08:03:21;2.85;;;1.30;;
23743;SDS011;12052;53.478;10.182;2023-05-20T08:05:47;2.22;;;1.30;;
23743;SDS011;12052;53.478;10.182;2023-05-20T08:08:13;2.92;;;1.48;;
23743;SDS011;12052;53.478;10.182;2023-05-20T08:10:40;2.83;;;1.58;;
23743;SDS011;12052;53.478;10.182;2023-05-20T08:13:05;3.25;;;1.60;;
23743;SDS011;12052;53.478;10.182;2023-05-20T08:15:31;2.80;;;1.17;;
23743;SDS011;12052;53.478;10.182;2023-05-20T08:17:57;4.40;;;1.70;;
23743;SDS011;12052;53.478;10.182;2023-05-20T08:20:22;4.15;;;1.50;;
23743;SDS011;12052;53.478;10.182;2023-05-20T08:22:50;2.72;;;1.30;;
23743;SDS011;12052;53.478;10.182;2023-05-20T08:25:16;2.50;;;1.25;;
23743;SDS011;12052;53.478;10.182;2023-05-20T08:27:41;3.72;;;1.58;;
23743;SDS011;12052;53.478;10.182;2023-05-20T08:30:07;3.10;;;1.30;;
23743;SDS011;12052;53.478;10.182;2023-05-20T08:32:34;5.18;;;1.30;;
23743;SDS011;12052;53.478;10.182;2023-05-20T08:35:00;5.13;;;1.38;;
23743;SDS011;12052;53.478;10.182;2023-05-20T08:37:26;3.15;;;1.52;;
23743;SDS011;12052;53.478;10.182;2023-05-20T08:39:53;3.28;;;1.20;;
23743;SDS011;12052;53.478;10.182;2023-05-20T08:42:20;2.88;;;1.40;;
23743;SDS011;12052;53.478;10.182;2023-05-20T08:44:50;1.33;;;1.20;;
23743;SDS011;12052;53.478;10.182;2023-05-20T08:47:17;2.55;;;1.27;;
23743;SDS011;12052;53.478;10.182;2023-05-20T08:49:44;2.33;;;1.50;;
23743;SDS011;12052;53.478;10.182;2023-05-20T08:52:10;5.63;;;1.52;;
23743;SDS011;12052;53.478;10.182;2023-05-20T08:54:42;3.83;;;1.13;;
23743;SDS011;12052;53.478;10.182;2023-05-20T08:57:13;1.30;;;1.05;;
23743;SDS011;12052;53.478;10.182;2023-05-20T08:59:43;3.83;;;1.17;;
23743;SDS011;12052;53.478;10.182;2023-05-20T09:02:10;1.83;;;1.20;;
23743;SDS011;12052;53.478;10.182;2023-05-20T09:04:36;2.15;;;1.02;;
23743;SDS011;12052;53.478;10.182;2023-05-20T09:07:02;2.50;;;1.38;;
23743;SDS011;12052;53.478;10.182;2023-05-20T09:09:29;4.03;;;1.40;;
23743;SDS011;12052;53.478;10.182;2023-05-20T09:11:55;2.45;;;1.40;;
23743;SDS011;12052;53.478;10.182;2023-05-20T09:14:20;4.13;;;1.40;;
23743;SDS011;12052;53.478;10.182;2023-05-20T09:16:47;2.38;;;1.30;;
23743;SDS011;12052;53.478;10.182;2023-05-20T09:19:13;2.38;;;1.15;;
23743;SDS011;12052;53.478;10.182;2023-05-20T09:21:39;2.60;;;1.38;;
23743;SDS011;12052;53.478;10.182;2023-05-20T09:24:05;2.72;;;1.35;;
23743;SDS011;12052;53.478;10.182;2023-05-20T09:26:31;1.80;;;1.15;;
23743;SDS011;12052;53.478;10.182;2023-05-20T09:28:57;2.40;;;1.00;;
23743;SDS011;12052;53.478;10.182;2023-05-20T09:31:27;4.30;;;1.27;;
23743;SDS011;12052;53.478;10.182;2023-05-20T09:33:54;6.28;;;1.10;;
23743;SDS011;12052;53.478;10.182;2023-05-20T09:36:21;2.20;;;1.40;;
23743;SDS011;12052;53.478;10.182;2023-05-20T09:38:48;3.90;;;1.08;;
23743;SDS011;12052;53.478;10.182;2023-05-20T09:41:17;3.70;;;1.30;;
23743;SDS011;12052;53.478;10.182;2023-05-20T09:43:47;4.70;;;1.38;;
23743;SDS011;12052;53.478;10.182;2023-05-20T09:46:14;3.13;;;1.40;;
23743;SDS011;12052;53.478;10.182;2023-05-20T09:48:40;2.33;;;1.58;;
23743;SDS011;12052;53.478;10.182;2023-05-20T09:51:07;3.05;;;1.17;;
23743;SDS011;12052;53.478;10.182;2023-05-20T09:53:33;2.00;;;1.40;;
23743;SDS011;12052;53.478;10.182;2023-05-20T09:56:00;5.55;;;1.23;;
23743;SDS011;12052;53.478;10.182;2023-05-20T09:58:25;1.77;;;1.10;;
23743;SDS011;12052;53.478;10.182;2023-05-20T10:00:52;2.78;;;1.23;;
23743;SDS011;12052;53.478;10.182;2023-05-20T10:03:20;3.25;;;1.40;;
23743;SDS011;12052;53.478;10.182;2023-05-20T10:09:04;1.63;;;1.27;;
23743;SDS011;12052;53.478;10.182;2023-05-20T10:12:08;6.75;;;1.40;;
23743;SDS011;12052;53.478;10.182;2023-05-20T10:14:55;1.73;;;1.25;;
23743;SDS011;12052;53.478;10.182;2023-05-20T10:17:43;2.58;;;1.30;;
23743;SDS011;12052;53.478;10.182;2023-05-20T10:20:29;2.28;;;1.20;;
23743;SDS011;12052;53.478;10.182;2023-05-20T10:22:56;6.05;;;1.85;;
23743;SDS011;12052;53.478;10.182;2023-05-20T10:25:26;4.53;;;1.45;;
23743;SDS011;12052;53.478;10.182;2023-05-20T10:28:02;3.00;;;1.33;;
23743;SDS011;12052;53.478;10.182;2023-05-20T10:30:37;2.58;;;1.52;;
23743;SDS011;12052;53.478;10.182;2023-05-20T10:33:15;2.80;;;1.70;;
23743;SDS011;12052;53.478;10.182;2023-05-20T10:35:46;3.10;;;1.40;;
23743;SDS011;12052;53.478;10.182;2023-05-20T10:38:14;3.72;;;1.40;;
23743;SDS011;12052;53.478;10.182;2023-05-20T10:40:40;3.45;;;1.38;;
23743;SDS011;12052;53.478;10.182;2023-05-20T10:43:15;3.42;;;1.13;;
23743;SDS011;12052;53.478;10.182;2023-05-20T10:45:49;3.15;;;1.27;;
23743;SDS011;12052;53.478;10.182;2023-05-20T10:48:22;3.72;;;1.50;;
23743;SDS011;12052;53.478;10.182;2023-05-20T10:50:49;3.33;;;1.38;;
23743;SDS011;12052;53.478;10.182;2023-05-20T10:53:14;2.70;;;1.33;;
23743;SDS011;12052;53.478;10.182;2023-05-20T10:55:45;4.18;;;1.77;;
23743;SDS011;12052;53.478;10.182;2023-05-20T10:58:15;4.32;;;1.42;;
23743;SDS011;12052;53.478;10.182;2023-05-20T11:00:42;4.05;;;1.80;;
23743;SDS011;12052;53.478;10.182;2023-05-20T11:03:07;5.03;;;1.48;;
23743;SDS011;12052;53.478;10.182;2023-05-20T11:05:33;3.10;;;1.30;;
23743;SDS011;12052;53.478;10.182;2023-05-20T11:08:03;4.65;;;1.67;;
23743;SDS011;12052;53.478;10.182;2023-05-20T11:10:30;2.60;;;1.70;;
23743;SDS011;12052;53.478;10.182;2023-05-20T11:12:59;4.22;;;1.40;;
23743;SDS011;12052;53.478;10.182;2023-05-20T11:15:25;5.32;;;1.50;;
23743;SDS011;12052;53.478;10.182;2023-05-20T11:17:52;2.88;;;1.70;;
23743;SDS011;12052;53.478;10.182;2023-05-20T11:20:19;5.85;;;2.00;;
23743;SDS011;12052;53.478;10.182;2023-05-20T11:22:45;5.00;;;1.60;;
23743;SDS011;12052;53.478;10.182;2023-05-20T11:25:11;6.30;;;1.67;;
23743;SDS011;12052;53.478;10.182;2023-05-20T11:27:39;3.38;;;1.73;;
23743;SDS011;12052;53.478;10.182;2023-05-20T11:30:05;5.28;;;1.50;;
23743;SDS011;12052;53.478;10.182;2023-05-20T11:32:31;6.15;;;1.85;;
23743;SDS011;12052;53.478;10.182;2023-05-20T11:34:57;3.42;;;1.50;;
23743;SDS011;12052;53.478;10.182;2023-05-20T11:37:22;3.88;;;1.60;;
23743;SDS011;12052;53.478;10.182;2023-05-20T11:39:48;4.10;;;1.63;;
23743;SDS011;12052;53.478;10.182;2023-05-20T11:42:33;2.67;;;1.50;;
23743;SDS011;12052;53.478;10.182;2023-05-20T11:45:00;4.55;;;1.55;;
23743;SDS011;12052;53.478;10.182;2023-05-20T11:47:26;3.30;;;1.52;;
23743;SDS011;12052;53.478;10.182;2023-05-20T11:49:52;3.33;;;1.70;;
23743;SDS011;12052;53.478;10.182;2023-05-20T11:52:17;2.97;;;1.30;;
23743;SDS011;12052;53.478;10.182;2023-05-20T11:54:43;2.15;;;1.20;;
23743;SDS011;12052;53.478;10.182;2023-05-20T11:57:12;3.53;;;1.70;;
23743;SDS011;12052;53.478;10.182;2023-05-20T11:59:37;5.32;;;1.75;;
23743;SDS011;12052;53.478;10.182;2023-05-20T12:02:03;2.42;;;1.50;;
23743;SDS011;12052;53.478;10.182;2023-05-20T12:04:29;4.18;;;1.67;;
23743;SDS011;12052;53.478;10.182;2023-05-20T12:06:54;9.65;;;2.13;;
23743;SDS011;12052;53.478;10.182;2023-05-20T12:09:20;3.30;;;2.10;;
23743;SDS011;12052;53.478;10.182;2023-05-20T12:11:46;3.75;;;1.83;;
23743;SDS011;12052;53.478;10.182;2023-05-20T12:14:12;4.88;;;1.80;;
23743;SDS011;12052;53.478;10.182;2023-05-20T12:16:37;8.25;;;1.80;;
23743;SDS011;12052;53.478;10.182;2023-05-20T12:19:03;2.65;;;1.60;;
23743;SDS011;12052;53.478;10.182;2023-05-20T12:21:29;4.60;;;1.85;;
23743;SDS011;12052;53.478;10.182;2023-05-20T12:23:56;3.40;;;1.65;;
23743;SDS011;12052;53.478;10.182;2023-05-20T12:26:23;5.05;;;1.85;;
23743;SDS011;12052;53.478;10.182;2023-05-20T12:28:49;2.00;;;1.48;;
23743;SDS011;12052;53.478;10.182;2023-05-20T12:31:15;3.17;;;1.60;;
23743;SDS011;12052;53.478;10.182;2023-05-20T12:33:40;3.83;;;1.63;;
23743;SDS011;12052;53.478;10.182;2023-05-20T12:36:06;6.93;;;2.30;;
23743;SDS011;12052;53.478;10.182;2023-05-20T12:38:32;4.20;;;2.00;;
23743;SDS011;12052;53.478;10.182;2023-05-20T12:40:58;4.28;;;1.70;;
23743;SDS011;12052;53.478;10.182;2023-05-20T12:43:23;2.40;;;1.58;;
23743;SDS011;12052;53.478;10.182;2023-05-20T12:45:49;3.58;;;1.55;;
23743;SDS011;12052;53.478;10.182;2023-05-20T12:48:16;1.73;;;1.33;;
23743;SDS011;12052;53.478;10.182;2023-05-20T12:50:42;2.72;;;1.58;;
23743;SDS011;12052;53.478;10.182;2023-05-20T12:53:07;3.03;;;1.70;;
23743;SDS011;12052;53.478;10.182;2023-05-20T12:55:33;2.50;;;1.52;;
23743;SDS011;12052;53.478;10.182;2023-05-20T12:57:58;2.25;;;1.65;;
23743;SDS011;12052;53.478;10.182;2023-05-20T13:00:24;2.60;;;1.75;;
23743;SDS011;12052;53.478;10.182;2023-05-20T13:02:50;1.80;;;1.25;;
23743;SDS011;12052;53.478;10.182;2023-05-20T13:05:16;3.10;;;1.35;;
23743;SDS011;12052;53.478;10.182;2023-05-20T13:07:42;3.53;;;1.35;;
23743;SDS011;12052;53.478;10.182;2023-05-20T13:10:09;5.15;;;1.60;;
23743;SDS011;12052;53.478;10.182;2023-05-20T13:12:35;3.25;;;1.42;;
23743;SDS011;12052;53.478;10.182;2023-05-20T13:15:02;4.18;;;1.60;;
23743;SDS011;12052;53.478;10.182;2023-05-20T13:17:28;3.95;;;2.00;;
23743;SDS011;12052;53.478;10.182;2023-05-20T13:19:54;2.75;;;1.58;;
23743;SDS011;12052;53.478;10.182;2023-05-20T13:22:20;5.07;;;1.50;;
23743;SDS011;12052;53.478;10.182;2023-05-20T13:24:45;4.65;;;1.70;;
23743;SDS011;12052;53.478;10.182;2023-05-20T13:27:11;3.65;;;1.90;;
23743;SDS011;12052;53.478;10.182;2023-05-20T13:29:37;2.65;;;1.67;;
23743;SDS011;12052;53.478;10.182;2023-05-20T13:32:03;2.80;;;1.63;;
23743;SDS011;12052;53.478;10.182;2023-05-20T13:34:29;3.13;;;1.67;;
23743;SDS011;12052;53.478;10.182;2023-05-20T13:36:55;2.53;;;1.88;;
23743;SDS011;12052;53.478;10.182;2023-05-20T13:39:21;2.85;;;1.38;;
23743;SDS011;12052;53.478;10.182;2023-05-20T13:41:46;2.80;;;1.60;;
23743;SDS011;12052;53.478;10.182;2023-05-20T13:44:12;3.88;;;1.90;;
23743;SDS011;12052;53.478;10.182;2023-05-20T13:46:38;2.55;;;1.50;;
23743;SDS011;12052;53.478;10.182;2023-05-20T13:49:03;4.13;;;1.88;;
23743;SDS011;12052;53.478;10.182;2023-05-20T13:51:29;3.13;;;1.77;;
23743;SDS011;12052;53.478;10.182;2023-05-20T13:53:55;4.10;;;2.10;;
23743;SDS011;12052;53.478;10.182;2023-05-20T13:56:21;3.03;;;1.80;;
23743;SDS011;12052;53.478;10.182;2023-05-20T13:58:47;5.00;;;1.92;;
23743;SDS011;12052;53.478;10.182;2023-05-20T14:01:12;3.47;;;1.95;;
23743;SDS011;12052;53.478;10.182;2023-05-20T14:03:39;4.90;;;1.80;;
23743;SDS011;12052;53.478;10.182;2023-05-20T14:06:06;3.92;;;1.98;;
23743;SDS011;12052;53.478;10.182;2023-05-20T14:08:32;2.85;;;1.92;;
23743;SDS011;12052;53.478;10.182;2023-05-20T14:10:58;2.50;;;1.63;;
23743;SDS011;12052;53.478;10.182;2023-05-20T14:13:23;2.25;;;1.40;;
23743;SDS011;12052;53.478;10.182;2023-05-20T14:15:50;4.53;;;1.80;;
23743;SDS011;12052;53.478;10.182;2023-05-20T14:18:18;4.70;;;1.73;;
23743;SDS011;12052;53.478;10.182;2023-05-20T14:20:44;2.40;;;1.60;;
23743;SDS011;12052;53.478;10.182;2023-05-20T14:23:10;1.88;;;1.33;;
23743;SDS011;12052;53.478;10.182;2023-05-20T14:25:36;2.45;;;1.65;;
23743;SDS011;12052;53.478;10.182;2023-05-20T14:28:02;2.00;;;1.52;;
23743;SDS011;12052;53.478;10.182;2023-05-20T14:30:28;2.85;;;1.83;;
23743;SDS011;12052;53.478;10.182;2023-05-20T14:32:53;2.08;;;1.70;;
23743;SDS011;12052;53.478;10.182;2023-05-20T14:35:19;2.40;;;1.80;;